sensor_id;sensor_type;location;lat;lon;timestamp;P1;durP1;ratioP1;P2;durP2;ratioP2
63536;SDS011;49686;51.880;5.632;2024-02-21T00:01:03;21.98;;;9.95;;
63536;SDS011;49686;51.880;5.632;2024-02-21T00:03:30;18.15;;;8.25;;
63536;SDS011;49686;51.880;5.632;2024-02-21T00:05:58;20.23;;;9.05;;
63536;SDS011;49686;51.880;5.632;2024-02-21T00:08:25;22.35;;;9.90;;
63536;SDS011;49686;51.880;5.632;2024-02-21T00:10:52;25.73;;;10.60;;
63536;SDS011;49686;51.880;5.632;2024-02-21T00:13:19;18.85;;;8.70;;
63536;SDS011;49686;51.880;5.632;2024-02-21T00:15:46;23.85;;;10.93;;
63536;SDS011;49686;51.880;5.632;2024-02-21T00:18:13;20.83;;;9.45;;
63536;SDS011;49686;51.880;5.632;2024-02-21T00:20:40;19.65;;;8.25;;
63536;SDS011;49686;51.880;5.632;2024-02-21T00:23:11;21.63;;;10.45;;
63536;SDS011;49686;51.880;5.632;2024-02-21T00:25:38;22.95;;;9.45;;
63536;SDS011;49686;51.880;5.632;2024-02-21T00:28:05;23.52;;;10.40;;
63536;SDS011;49686;51.880;5.632;2024-02-21T00:30:32;19.35;;;9.57;;
63536;SDS011;49686;51.880;5.632;2024-02-21T00:32:58;18.15;;;10.27;;
63536;SDS011;49686;51.880;5.632;2024-02-21T00:35:26;20.67;;;8.02;;
63536;SDS011;49686;51.880;5.632;2024-02-21T00:37:53;22.30;;;10.02;;
63536;SDS011;49686;51.880;5.632;2024-02-21T00:40:22;18.95;;;9.52;;
63536;SDS011;49686;51.880;5.632;2024-02-21T00:42:49;16.00;;;9.02;;
63536;SDS011;49686;51.880;5.632;2024-02-21T00:45:16;22.70;;;9.73;;
63536;SDS011;49686;51.880;5.632;2024-02-21T00:47:42;17.23;;;9.20;;
63536;SDS011;49686;51.880;5.632;2024-02-21T00:50:09;16.67;;;6.97;;
63536;SDS011;49686;51.880;5.632;2024-02-21T00:52:36;18.08;;;8.32;;
63536;SDS011;49686;51.880;5.632;2024-02-21T00:55:04;22.38;;;10.02;;
63536;SDS011;49686;51.880;5.632;2024-02-21T00:57:32;21.00;;;9.27;;
63536;SDS011;49686;51.880;5.632;2024-02-21T00:59:59;18.27;;;9.00;;
63536;SDS011;49686;51.880;5.632;2024-02-21T01:02:26;16.05;;;8.65;;
63536;SDS011;49686;51.880;5.632;2024-02-21T01:04:53;16.92;;;7.85;;
63536;SDS011;49686;51.880;5.632;2024-02-21T01:07:20;13.52;;;6.18;;
63536;SDS011;49686;51.880;5.632;2024-02-21T01:09:47;14.95;;;8.10;;
63536;SDS011;49686;51.880;5.632;2024-02-21T01:12:14;15.52;;;7.78;;
63536;SDS011;49686;51.880;5.632;2024-02-21T01:14:43;17.45;;;8.50;;
63536;SDS011;49686;51.880;5.632;2024-02-21T01:17:10;17.02;;;8.85;;
63536;SDS011;49686;51.880;5.632;2024-02-21T01:19:37;20.73;;;10.02;;
63536;SDS011;49686;51.880;5.632;2024-02-21T01:22:04;16.35;;;8.90;;
63536;SDS011;49686;51.880;5.632;2024-02-21T01:24:31;23.17;;;9.80;;
63536;SDS011;49686;51.880;5.632;2024-02-21T01:26:58;20.45;;;8.98;;
63536;SDS011;49686;51.880;5.632;2024-02-21T01:29:25;21.80;;;8.93;;
63536;SDS011;49686;51.880;5.632;2024-02-21T01:31:53;20.13;;;9.35;;
63536;SDS011;49686;51.880;5.632;2024-02-21T01:34:20;20.00;;;9.45;;
63536;SDS011;49686;51.880;5.632;2024-02-21T01:36:47;19.33;;;9.27;;
63536;SDS011;49686;51.880;5.632;2024-02-21T01:39:14;18.52;;;9.00;;
63536;SDS011;49686;51.880;5.632;2024-02-21T01:41:41;19.88;;;8.07;;
63536;SDS011;49686;51.880;5.632;2024-02-21T01:44:08;18.90;;;9.38;;
63536;SDS011;49686;51.880;5.632;2024-02-21T01:46:35;11.07;;;5.95;;
63536;SDS011;49686;51.880;5.632;2024-02-21T01:49:04;24.98;;;9.63;;
63536;SDS011;49686;51.880;5.632;2024-02-21T01:51:31;14.32;;;8.75;;
63536;SDS011;49686;51.880;5.632;2024-02-21T01:53:58;20.40;;;8.98;;
63536;SDS011;49686;51.880;5.632;2024-02-21T01:56:25;21.00;;;8.27;;
63536;SDS011;49686;51.880;5.632;2024-02-21T01:58:53;17.40;;;8.05;;
63536;SDS011;49686;51.880;5.632;2024-02-21T02:01:21;24.05;;;10.15;;
63536;SDS011;49686;51.880;5.632;2024-02-21T02:03:49;19.45;;;9.20;;
63536;SDS011;49686;51.880;5.632;2024-02-21T02:06:17;19.05;;;7.35;;
63536;SDS011;49686;51.880;5.632;2024-02-21T02:08:44;17.38;;;8.10;;
63536;SDS011;49686;51.880;5.632;2024-02-21T02:11:13;22.83;;;11.02;;
63536;SDS011;49686;51.880;5.632;2024-02-21T02:13:40;21.67;;;8.27;;
63536;SDS011;49686;51.880;5.632;2024-02-21T02:16:07;17.88;;;9.27;;
63536;SDS011;49686;51.880;5.632;2024-02-21T02:18:34;18.23;;;7.93;;
63536;SDS011;49686;51.880;5.632;2024-02-21T02:21:02;17.75;;;8.50;;
63536;SDS011;49686;51.880;5.632;2024-02-21T02:23:32;13.48;;;6.90;;
63536;SDS011;49686;51.880;5.632;2024-02-21T02:28:27;17.88;;;8.23;;
63536;SDS011;49686;51.880;5.632;2024-02-21T02:30:53;21.58;;;9.05;;
63536;SDS011;49686;51.880;5.632;2024-02-21T02:33:21;22.00;;;8.77;;
63536;SDS011;49686;51.880;5.632;2024-02-21T02:35:48;17.33;;;8.27;;
63536;SDS011;49686;51.880;5.632;2024-02-21T02:38:15;15.93;;;7.65;;
63536;SDS011;49686;51.880;5.632;2024-02-21T02:40:43;18.23;;;8.45;;
63536;SDS011;49686;51.880;5.632;2024-02-21T02:43:11;17.25;;;7.97;;
63536;SDS011;49686;51.880;5.632;2024-02-21T02:45:38;21.02;;;9.40;;
63536;SDS011;49686;51.880;5.632;2024-02-21T02:48:05;18.85;;;8.38;;
63536;SDS011;49686;51.880;5.632;2024-02-21T02:50:33;19.43;;;8.90;;
63536;SDS011;49686;51.880;5.632;2024-02-21T02:53:00;21.52;;;8.98;;
63536;SDS011;49686;51.880;5.632;2024-02-21T02:55:27;20.30;;;8.70;;
63536;SDS011;49686;51.880;5.632;2024-02-21T02:57:56;17.85;;;8.27;;
63536;SDS011;49686;51.880;5.632;2024-02-21T03:00:22;21.42;;;8.50;;
63536;SDS011;49686;51.880;5.632;2024-02-21T03:02:49;19.42;;;9.18;;
63536;SDS011;49686;51.880;5.632;2024-02-21T03:05:17;14.88;;;8.15;;
63536;SDS011;49686;51.880;5.632;2024-02-21T03:07:45;18.48;;;7.93;;
63536;SDS011;49686;51.880;5.632;2024-02-21T03:10:13;16.80;;;8.07;;
63536;SDS011;49686;51.880;5.632;2024-02-21T03:12:40;19.17;;;8.50;;
63536;SDS011;49686;51.880;5.632;2024-02-21T03:15:09;15.65;;;7.53;;
63536;SDS011;49686;51.880;5.632;2024-02-21T03:20:03;9.35;;;4.45;;
63536;SDS011;49686;51.880;5.632;2024-02-21T03:22:31;16.67;;;7.60;;
63536;SDS011;49686;51.880;5.632;2024-02-21T03:24:58;15.00;;;7.72;;
63536;SDS011;49686;51.880;5.632;2024-02-21T03:27:25;11.70;;;6.75;;
63536;SDS011;49686;51.880;5.632;2024-02-21T03:29:52;14.88;;;6.45;;
63536;SDS011;49686;51.880;5.632;2024-02-21T03:32:20;13.70;;;6.28;;
63536;SDS011;49686;51.880;5.632;2024-02-21T03:34:47;13.05;;;6.45;;
63536;SDS011;49686;51.880;5.632;2024-02-21T03:37:14;12.63;;;6.05;;
63536;SDS011;49686;51.880;5.632;2024-02-21T03:39:41;15.15;;;6.80;;
63536;SDS011;49686;51.880;5.632;2024-02-21T03:42:08;16.20;;;5.85;;
63536;SDS011;49686;51.880;5.632;2024-02-21T03:44:36;14.30;;;6.50;;
63536;SDS011;49686;51.880;5.632;2024-02-21T03:47:03;13.20;;;6.45;;
63536;SDS011;49686;51.880;5.632;2024-02-21T03:49:31;14.85;;;6.55;;
63536;SDS011;49686;51.880;5.632;2024-02-21T03:51:58;8.65;;;4.85;;
63536;SDS011;49686;51.880;5.632;2024-02-21T03:54:25;15.50;;;6.28;;
63536;SDS011;49686;51.880;5.632;2024-02-21T03:56:52;13.60;;;6.32;;
63536;SDS011;49686;51.880;5.632;2024-02-21T03:59:19;13.68;;;5.78;;
63536;SDS011;49686;51.880;5.632;2024-02-21T04:01:46;11.18;;;6.18;;
63536;SDS011;49686;51.880;5.632;2024-02-21T04:04:12;11.55;;;6.35;;
63536;SDS011;49686;51.880;5.632;2024-02-21T04:06:47;17.25;;;6.93;;
63536;SDS011;49686;51.880;5.632;2024-02-21T04:09:14;11.95;;;6.00;;
63536;SDS011;49686;51.880;5.632;2024-02-21T04:11:41;11.43;;;5.30;;
63536;SDS011;49686;51.880;5.632;2024-02-21T04:14:09;11.20;;;5.55;;
63536;SDS011;49686;51.880;5.632;2024-02-21T04:16:36;14.98;;;5.70;;
63536;SDS011;49686;51.880;5.632;2024-02-21T04:19:03;13.43;;;5.75;;
63536;SDS011;49686;51.880;5.632;2024-02-21T04:21:30;12.85;;;5.47;;
63536;SDS011;49686;51.880;5.632;2024-02-21T04:23:58;11.48;;;5.30;;
63536;SDS011;49686;51.880;5.632;2024-02-21T04:26:25;16.25;;;6.00;;
63536;SDS011;49686;51.880;5.632;2024-02-21T04:28:52;13.75;;;5.22;;
63536;SDS011;49686;51.880;5.632;2024-02-21T04:31:19;11.10;;;5.15;;
63536;SDS011;49686;51.880;5.632;2024-02-21T04:33:46;10.57;;;5.22;;
63536;SDS011;49686;51.880;5.632;2024-02-21T04:36:13;11.38;;;5.72;;
63536;SDS011;49686;51.880;5.632;2024-02-21T04:38:40;12.25;;;5.55;;
63536;SDS011;49686;51.880;5.632;2024-02-21T04:41:08;13.45;;;5.75;;
63536;SDS011;49686;51.880;5.632;2024-02-21T04:43:36;14.50;;;6.00;;
63536;SDS011;49686;51.880;5.632;2024-02-21T04:46:03;14.15;;;6.03;;
63536;SDS011;49686;51.880;5.632;2024-02-21T04:48:30;13.93;;;6.00;;
63536;SDS011;49686;51.880;5.632;2024-02-21T04:50:57;15.80;;;6.40;;
63536;SDS011;49686;51.880;5.632;2024-02-21T04:53:24;11.93;;;5.75;;
63536;SDS011;49686;51.880;5.632;2024-02-21T04:55:51;13.23;;;6.15;;
63536;SDS011;49686;51.880;5.632;2024-02-21T04:58:19;15.50;;;6.90;;
63536;SDS011;49686;51.880;5.632;2024-02-21T05:00:46;16.25;;;7.00;;
63536;SDS011;49686;51.880;5.632;2024-02-21T05:03:13;13.77;;;7.18;;
63536;SDS011;49686;51.880;5.632;2024-02-21T05:05:40;13.32;;;7.15;;
63536;SDS011;49686;51.880;5.632;2024-02-21T05:08:09;15.15;;;7.88;;
63536;SDS011;49686;51.880;5.632;2024-02-21T05:10:36;13.50;;;7.03;;
63536;SDS011;49686;51.880;5.632;2024-02-21T05:13:03;21.38;;;8.45;;
63536;SDS011;49686;51.880;5.632;2024-02-21T05:15:32;14.15;;;7.43;;
63536;SDS011;49686;51.880;5.632;2024-02-21T05:17:58;18.48;;;8.23;;
63536;SDS011;49686;51.880;5.632;2024-02-21T05:20:26;18.27;;;8.90;;
63536;SDS011;49686;51.880;5.632;2024-02-21T05:22:53;16.70;;;8.05;;
63536;SDS011;49686;51.880;5.632;2024-02-21T05:25:21;21.25;;;9.52;;
63536;SDS011;49686;51.880;5.632;2024-02-21T05:27:47;17.17;;;8.32;;
63536;SDS011;49686;51.880;5.632;2024-02-21T05:30:17;21.15;;;9.25;;
63536;SDS011;49686;51.880;5.632;2024-02-21T05:32:45;19.17;;;9.25;;
63536;SDS011;49686;51.880;5.632;2024-02-21T05:35:12;12.73;;;7.38;;
63536;SDS011;49686;51.880;5.632;2024-02-21T05:37:39;15.80;;;7.07;;
63536;SDS011;49686;51.880;5.632;2024-02-21T05:40:07;17.33;;;8.38;;
63536;SDS011;49686;51.880;5.632;2024-02-21T05:42:34;21.13;;;10.23;;
63536;SDS011;49686;51.880;5.632;2024-02-21T05:45:01;17.33;;;8.45;;
63536;SDS011;49686;51.880;5.632;2024-02-21T05:47:28;14.85;;;8.05;;
63536;SDS011;49686;51.880;5.632;2024-02-21T05:49:56;15.90;;;8.32;;
63536;SDS011;49686;51.880;5.632;2024-02-21T05:52:23;16.05;;;7.75;;
63536;SDS011;49686;51.880;5.632;2024-02-21T05:54:50;18.15;;;8.98;;
63536;SDS011;49686;51.880;5.632;2024-02-21T05:57:17;21.50;;;8.98;;
63536;SDS011;49686;51.880;5.632;2024-02-21T05:59:44;15.70;;;7.43;;
63536;SDS011;49686;51.880;5.632;2024-02-21T06:02:11;18.70;;;8.48;;
63536;SDS011;49686;51.880;5.632;2024-02-21T06:04:38;14.90;;;7.40;;
63536;SDS011;49686;51.880;5.632;2024-02-21T06:07:06;15.48;;;7.95;;
63536;SDS011;49686;51.880;5.632;2024-02-21T06:09:34;18.15;;;7.88;;
63536;SDS011;49686;51.880;5.632;2024-02-21T06:12:01;16.80;;;7.80;;
63536;SDS011;49686;51.880;5.632;2024-02-21T06:14:28;16.42;;;7.13;;
63536;SDS011;49686;51.880;5.632;2024-02-21T06:16:55;16.60;;;7.40;;
63536;SDS011;49686;51.880;5.632;2024-02-21T06:19:22;19.23;;;8.77;;
63536;SDS011;49686;51.880;5.632;2024-02-21T06:21:49;15.82;;;7.57;;
63536;SDS011;49686;51.880;5.632;2024-02-21T06:24:17;16.90;;;7.63;;
63536;SDS011;49686;51.880;5.632;2024-02-21T06:26:44;17.95;;;7.45;;
63536;SDS011;49686;51.880;5.632;2024-02-21T06:29:11;18.58;;;7.50;;
63536;SDS011;49686;51.880;5.632;2024-02-21T06:31:38;17.17;;;6.53;;
63536;SDS011;49686;51.880;5.632;2024-02-21T06:34:06;13.40;;;6.85;;
63536;SDS011;49686;51.880;5.632;2024-02-21T06:36:33;14.50;;;6.82;;
63536;SDS011;49686;51.880;5.632;2024-02-21T06:38:59;14.38;;;6.57;;
63536;SDS011;49686;51.880;5.632;2024-02-21T06:41:28;16.02;;;6.70;;
63536;SDS011;49686;51.880;5.632;2024-02-21T06:43:55;14.70;;;6.20;;
63536;SDS011;49686;51.880;5.632;2024-02-21T06:46:25;14.93;;;7.93;;
63536;SDS011;49686;51.880;5.632;2024-02-21T06:48:52;12.63;;;6.25;;
63536;SDS011;49686;51.880;5.632;2024-02-21T06:51:20;13.07;;;6.57;;
63536;SDS011;49686;51.880;5.632;2024-02-21T06:53:46;13.25;;;6.38;;
63536;SDS011;49686;51.880;5.632;2024-02-21T06:56:13;14.90;;;6.28;;
63536;SDS011;49686;51.880;5.632;2024-02-21T06:58:42;19.20;;;6.40;;
63536;SDS011;49686;51.880;5.632;2024-02-21T07:01:10;14.55;;;6.88;;
63536;SDS011;49686;51.880;5.632;2024-02-21T07:03:37;10.85;;;5.03;;
63536;SDS011;49686;51.880;5.632;2024-02-21T07:06:04;11.68;;;5.80;;
63536;SDS011;49686;51.880;5.632;2024-02-21T07:08:32;19.17;;;8.38;;
63536;SDS011;49686;51.880;5.632;2024-02-21T07:10:59;16.63;;;6.80;;
63536;SDS011;49686;51.880;5.632;2024-02-21T07:13:26;16.45;;;6.07;;
63536;SDS011;49686;51.880;5.632;2024-02-21T07:15:54;13.57;;;6.70;;
63536;SDS011;49686;51.880;5.632;2024-02-21T07:18:22;13.90;;;6.45;;
63536;SDS011;49686;51.880;5.632;2024-02-21T07:20:49;14.48;;;6.60;;
63536;SDS011;49686;51.880;5.632;2024-02-21T07:23:16;17.40;;;7.65;;
63536;SDS011;49686;51.880;5.632;2024-02-21T07:25:44;12.38;;;6.00;;
63536;SDS011;49686;51.880;5.632;2024-02-21T07:28:11;18.90;;;7.82;;
63536;SDS011;49686;51.880;5.632;2024-02-21T07:30:38;17.90;;;7.32;;
63536;SDS011;49686;51.880;5.632;2024-02-21T07:33:06;14.93;;;7.03;;
63536;SDS011;49686;51.880;5.632;2024-02-21T07:35:33;15.95;;;6.88;;
63536;SDS011;49686;51.880;5.632;2024-02-21T07:38:01;17.65;;;6.22;;
63536;SDS011;49686;51.880;5.632;2024-02-21T07:40:28;13.35;;;7.10;;
63536;SDS011;49686;51.880;5.632;2024-02-21T07:42:55;13.02;;;6.97;;
63536;SDS011;49686;51.880;5.632;2024-02-21T07:45:22;14.73;;;7.00;;
63536;SDS011;49686;51.880;5.632;2024-02-21T07:47:49;15.40;;;7.00;;
63536;SDS011;49686;51.880;5.632;2024-02-21T07:50:17;12.18;;;5.63;;
63536;SDS011;49686;51.880;5.632;2024-02-21T07:52:44;14.30;;;7.25;;
63536;SDS011;49686;51.880;5.632;2024-02-21T07:55:11;13.75;;;6.53;;
63536;SDS011;49686;51.880;5.632;2024-02-21T07:57:38;12.48;;;6.70;;
63536;SDS011;49686;51.880;5.632;2024-02-21T08:00:06;14.40;;;6.68;;
63536;SDS011;49686;51.880;5.632;2024-02-21T08:02:33;16.02;;;7.43;;
63536;SDS011;49686;51.880;5.632;2024-02-21T08:05:00;16.85;;;7.15;;
63536;SDS011;49686;51.880;5.632;2024-02-21T08:07:29;14.85;;;6.85;;
63536;SDS011;49686;51.880;5.632;2024-02-21T08:09:56;15.60;;;6.88;;
63536;SDS011;49686;51.880;5.632;2024-02-21T08:12:23;12.82;;;5.60;;
63536;SDS011;49686;51.880;5.632;2024-02-21T08:14:50;14.90;;;6.28;;
63536;SDS011;49686;51.880;5.632;2024-02-21T08:17:16;12.35;;;5.97;;
63536;SDS011;49686;51.880;5.632;2024-02-21T08:19:44;7.25;;;3.92;;
63536;SDS011;49686;51.880;5.632;2024-02-21T08:22:10;15.02;;;6.50;;
63536;SDS011;49686;51.880;5.632;2024-02-21T08:24:39;13.55;;;6.65;;
63536;SDS011;49686;51.880;5.632;2024-02-21T08:27:06;12.50;;;5.68;;
63536;SDS011;49686;51.880;5.632;2024-02-21T08:29:32;17.63;;;7.55;;
63536;SDS011;49686;51.880;5.632;2024-02-21T08:31:59;11.43;;;6.53;;
63536;SDS011;49686;51.880;5.632;2024-02-21T08:34:27;12.43;;;6.35;;
63536;SDS011;49686;51.880;5.632;2024-02-21T08:36:54;10.90;;;5.80;;
63536;SDS011;49686;51.880;5.632;2024-02-21T08:39:21;14.85;;;7.35;;
63536;SDS011;49686;51.880;5.632;2024-02-21T08:41:49;11.07;;;6.32;;
63536;SDS011;49686;51.880;5.632;2024-02-21T08:44:23;11.70;;;6.80;;
63536;SDS011;49686;51.880;5.632;2024-02-21T08:46:50;14.55;;;7.00;;
63536;SDS011;49686;51.880;5.632;2024-02-21T08:49:17;12.80;;;5.63;;
63536;SDS011;49686;51.880;5.632;2024-02-21T08:51:44;11.70;;;6.82;;
63536;SDS011;49686;51.880;5.632;2024-02-21T08:54:11;10.63;;;6.18;;
63536;SDS011;49686;51.880;5.632;2024-02-21T08:56:38;14.32;;;6.30;;
63536;SDS011;49686;51.880;5.632;2024-02-21T08:59:06;12.38;;;6.00;;
63536;SDS011;49686;51.880;5.632;2024-02-21T09:01:33;17.17;;;7.55;;
63536;SDS011;49686;51.880;5.632;2024-02-21T09:04:00;13.90;;;7.28;;
63536;SDS011;49686;51.880;5.632;2024-02-21T09:06:27;14.48;;;6.88;;
63536;SDS011;49686;51.880;5.632;2024-02-21T09:08:55;11.23;;;6.40;;
63536;SDS011;49686;51.880;5.632;2024-02-21T09:11:22;11.75;;;6.07;;
63536;SDS011;49686;51.880;5.632;2024-02-21T09:13:49;16.27;;;7.75;;
63536;SDS011;49686;51.880;5.632;2024-02-21T09:16:18;17.48;;;7.40;;
63536;SDS011;49686;51.880;5.632;2024-02-21T09:18:45;14.48;;;7.53;;
63536;SDS011;49686;51.880;5.632;2024-02-21T09:21:12;10.52;;;5.65;;
63536;SDS011;49686;51.880;5.632;2024-02-21T09:23:58;14.77;;;6.65;;
63536;SDS011;49686;51.880;5.632;2024-02-21T09:26:26;10.60;;;6.82;;
63536;SDS011;49686;51.880;5.632;2024-02-21T09:28:53;11.27;;;5.72;;
63536;SDS011;49686;51.880;5.632;2024-02-21T09:31:22;13.77;;;6.70;;
63536;SDS011;49686;51.880;5.632;2024-02-21T09:33:49;11.20;;;6.38;;
63536;SDS011;49686;51.880;5.632;2024-02-21T09:36:16;11.13;;;6.10;;
63536;SDS011;49686;51.880;5.632;2024-02-21T09:38:43;13.70;;;6.30;;
63536;SDS011;49686;51.880;5.632;2024-02-21T09:41:12;12.77;;;6.30;;
63536;SDS011;49686;51.880;5.632;2024-02-21T09:43:43;12.25;;;6.30;;
63536;SDS011;49686;51.880;5.632;2024-02-21T09:46:13;10.88;;;5.35;;
63536;SDS011;49686;51.880;5.632;2024-02-21T09:48:48;12.27;;;5.63;;
63536;SDS011;49686;51.880;5.632;2024-02-21T09:51:24;9.15;;;5.47;;
63536;SDS011;49686;51.880;5.632;2024-02-21T09:53:53;9.93;;;5.68;;
63536;SDS011;49686;51.880;5.632;2024-02-21T09:56:36;11.55;;;6.15;;
63536;SDS011;49686;51.880;5.632;2024-02-21T09:59:04;10.02;;;5.70;;
63536;SDS011;49686;51.880;5.632;2024-02-21T10:01:32;9.63;;;5.20;;
63536;SDS011;49686;51.880;5.632;2024-02-21T10:04:02;11.48;;;6.38;;
63536;SDS011;49686;51.880;5.632;2024-02-21T10:06:30;8.73;;;5.00;;
63536;SDS011;49686;51.880;5.632;2024-02-21T10:08:58;8.88;;;5.60;;
63536;SDS011;49686;51.880;5.632;2024-02-21T10:11:25;8.98;;;5.75;;
63536;SDS011;49686;51.880;5.632;2024-02-21T10:14:02;9.68;;;5.85;;
63536;SDS011;49686;51.880;5.632;2024-02-21T10:16:29;9.63;;;5.10;;
63536;SDS011;49686;51.880;5.632;2024-02-21T10:18:56;9.30;;;5.53;;
63536;SDS011;49686;51.880;5.632;2024-02-21T10:21:25;10.02;;;6.07;;
63536;SDS011;49686;51.880;5.632;2024-02-21T10:23:52;9.40;;;6.15;;
63536;SDS011;49686;51.880;5.632;2024-02-21T10:26:19;8.00;;;6.10;;
63536;SDS011;49686;51.880;5.632;2024-02-21T10:28:46;9.75;;;5.45;;
63536;SDS011;49686;51.880;5.632;2024-02-21T10:31:21;7.90;;;5.43;;
63536;SDS011;49686;51.880;5.632;2024-02-21T10:33:53;7.65;;;6.05;;
63536;SDS011;49686;51.880;5.632;2024-02-21T10:36:21;8.27;;;7.18;;
63536;SDS011;49686;51.880;5.632;2024-02-21T10:38:49;9.98;;;6.45;;
63536;SDS011;49686;51.880;5.632;2024-02-21T10:41:16;9.77;;;5.97;;
63536;SDS011;49686;51.880;5.632;2024-02-21T10:43:48;11.75;;;7.30;;
63536;SDS011;49686;51.880;5.632;2024-02-21T10:46:18;9.27;;;5.95;;
63536;SDS011;49686;51.880;5.632;2024-02-21T10:48:46;9.70;;;6.65;;
63536;SDS011;49686;51.880;5.632;2024-02-21T10:51:14;9.43;;;7.40;;
63536;SDS011;49686;51.880;5.632;2024-02-21T10:53:44;11.57;;;6.95;;
63536;SDS011;49686;51.880;5.632;2024-02-21T10:56:21;9.63;;;7.22;;
63536;SDS011;49686;51.880;5.632;2024-02-21T10:58:52;9.88;;;7.13;;
63536;SDS011;49686;51.880;5.632;2024-02-21T11:01:19;10.07;;;7.15;;
63536;SDS011;49686;51.880;5.632;2024-02-21T11:03:48;11.68;;;6.65;;
63536;SDS011;49686;51.880;5.632;2024-02-21T11:06:16;9.55;;;6.80;;
63536;SDS011;49686;51.880;5.632;2024-02-21T11:08:45;11.93;;;6.60;;
63536;SDS011;49686;51.880;5.632;2024-02-21T11:11:12;8.82;;;6.43;;
63536;SDS011;49686;51.880;5.632;2024-02-21T11:14:05;10.68;;;5.65;;
63536;SDS011;49686;51.880;5.632;2024-02-21T11:16:36;12.70;;;5.95;;
63536;SDS011;49686;51.880;5.632;2024-02-21T11:19:04;8.73;;;5.78;;
63536;SDS011;49686;51.880;5.632;2024-02-21T11:21:32;10.73;;;5.60;;
63536;SDS011;49686;51.880;5.632;2024-02-21T11:24:02;9.52;;;6.28;;
63536;SDS011;49686;51.880;5.632;2024-02-21T11:26:29;9.75;;;5.43;;
63536;SDS011;49686;51.880;5.632;2024-02-21T11:28:57;11.07;;;5.30;;
63536;SDS011;49686;51.880;5.632;2024-02-21T11:31:26;8.77;;;4.93;;
63536;SDS011;49686;51.880;5.632;2024-02-21T11:33:53;13.43;;;4.82;;
63536;SDS011;49686;51.880;5.632;2024-02-21T11:36:24;11.05;;;5.70;;
63536;SDS011;49686;51.880;5.632;2024-02-21T11:38:51;7.50;;;5.13;;
63536;SDS011;49686;51.880;5.632;2024-02-21T11:41:18;8.30;;;5.20;;
63536;SDS011;49686;51.880;5.632;2024-02-21T11:43:45;9.30;;;4.45;;
63536;SDS011;49686;51.880;5.632;2024-02-21T11:46:12;9.05;;;4.80;;
63536;SDS011;49686;51.880;5.632;2024-02-21T11:48:42;9.80;;;4.80;;
63536;SDS011;49686;51.880;5.632;2024-02-21T11:51:09;9.75;;;5.35;;
63536;SDS011;49686;51.880;5.632;2024-02-21T11:53:36;9.70;;;4.63;;
63536;SDS011;49686;51.880;5.632;2024-02-21T11:56:15;9.63;;;5.00;;
63536;SDS011;49686;51.880;5.632;2024-02-21T11:58:43;8.50;;;5.22;;
63536;SDS011;49686;51.880;5.632;2024-02-21T12:01:09;9.48;;;5.00;;
63536;SDS011;49686;51.880;5.632;2024-02-21T12:03:37;9.60;;;4.85;;
63536;SDS011;49686;51.880;5.632;2024-02-21T12:06:06;7.78;;;4.80;;
63536;SDS011;49686;51.880;5.632;2024-02-21T12:08:43;11.25;;;5.55;;
63536;SDS011;49686;51.880;5.632;2024-02-21T12:11:19;9.18;;;5.15;;
63536;SDS011;49686;51.880;5.632;2024-02-21T12:13:47;9.98;;;4.60;;
63536;SDS011;49686;51.880;5.632;2024-02-21T12:16:17;7.90;;;5.20;;
63536;SDS011;49686;51.880;5.632;2024-02-21T12:18:44;8.82;;;5.43;;
63536;SDS011;49686;51.880;5.632;2024-02-21T12:21:13;9.02;;;5.95;;
63536;SDS011;49686;51.880;5.632;2024-02-21T12:23:39;7.65;;;5.60;;
63536;SDS011;49686;51.880;5.632;2024-02-21T12:26:06;8.95;;;4.82;;
63536;SDS011;49686;51.880;5.632;2024-02-21T12:28:34;7.55;;;4.50;;
63536;SDS011;49686;51.880;5.632;2024-02-21T12:31:01;6.60;;;4.55;;
63536;SDS011;49686;51.880;5.632;2024-02-21T12:33:28;11.80;;;6.05;;
63536;SDS011;49686;51.880;5.632;2024-02-21T12:35:55;8.73;;;4.95;;
63536;SDS011;49686;51.880;5.632;2024-02-21T12:38:23;9.02;;;5.70;;
63536;SDS011;49686;51.880;5.632;2024-02-21T12:40:50;7.60;;;4.50;;
63536;SDS011;49686;51.880;5.632;2024-02-21T12:43:18;10.07;;;4.63;;
63536;SDS011;49686;51.880;5.632;2024-02-21T12:45:45;8.45;;;4.30;;
63536;SDS011;49686;51.880;5.632;2024-02-21T12:48:12;10.50;;;4.55;;
63536;SDS011;49686;51.880;5.632;2024-02-21T12:50:39;9.38;;;4.57;;
63536;SDS011;49686;51.880;5.632;2024-02-21T12:53:10;7.72;;;4.45;;
63536;SDS011;49686;51.880;5.632;2024-02-21T12:55:52;9.32;;;4.65;;
63536;SDS011;49686;51.880;5.632;2024-02-21T12:58:19;8.15;;;4.30;;
63536;SDS011;49686;51.880;5.632;2024-02-21T13:00:46;9.18;;;4.90;;
63536;SDS011;49686;51.880;5.632;2024-02-21T13:03:13;8.57;;;4.82;;
63536;SDS011;49686;51.880;5.632;2024-02-21T13:05:40;8.00;;;4.35;;
63536;SDS011;49686;51.880;5.632;2024-02-21T13:08:08;8.25;;;4.38;;
63536;SDS011;49686;51.880;5.632;2024-02-21T13:10:35;11.18;;;4.60;;
63536;SDS011;49686;51.880;5.632;2024-02-21T13:13:03;9.25;;;4.50;;
63536;SDS011;49686;51.880;5.632;2024-02-21T13:15:30;8.57;;;4.35;;
63536;SDS011;49686;51.880;5.632;2024-02-21T13:17:57;11.10;;;5.20;;
63536;SDS011;49686;51.880;5.632;2024-02-21T13:20:25;9.88;;;4.55;;
63536;SDS011;49686;51.880;5.632;2024-02-21T13:22:52;8.23;;;4.38;;
63536;SDS011;49686;51.880;5.632;2024-02-21T13:25:19;9.15;;;4.57;;
63536;SDS011;49686;51.880;5.632;2024-02-21T13:27:46;9.43;;;4.03;;
63536;SDS011;49686;51.880;5.632;2024-02-21T13:30:14;10.45;;;5.25;;
63536;SDS011;49686;51.880;5.632;2024-02-21T13:32:41;8.73;;;4.38;;
63536;SDS011;49686;51.880;5.632;2024-02-21T13:35:09;5.30;;;3.67;;
63536;SDS011;49686;51.880;5.632;2024-02-21T13:37:36;7.53;;;4.47;;
63536;SDS011;49686;51.880;5.632;2024-02-21T13:40:03;10.68;;;3.88;;
63536;SDS011;49686;51.880;5.632;2024-02-21T13:42:31;7.95;;;4.30;;
63536;SDS011;49686;51.880;5.632;2024-02-21T13:44:58;10.90;;;3.80;;
63536;SDS011;49686;51.880;5.632;2024-02-21T13:47:26;5.75;;;3.58;;
63536;SDS011;49686;51.880;5.632;2024-02-21T13:49:53;6.55;;;3.30;;
63536;SDS011;49686;51.880;5.632;2024-02-21T13:52:20;7.40;;;4.40;;
63536;SDS011;49686;51.880;5.632;2024-02-21T13:54:47;8.98;;;4.07;;
63536;SDS011;49686;51.880;5.632;2024-02-21T13:57:14;8.23;;;3.40;;
63536;SDS011;49686;51.880;5.632;2024-02-21T13:59:41;7.05;;;4.22;;
63536;SDS011;49686;51.880;5.632;2024-02-21T14:02:08;7.90;;;3.90;;
63536;SDS011;49686;51.880;5.632;2024-02-21T14:04:37;7.65;;;3.80;;
63536;SDS011;49686;51.880;5.632;2024-02-21T14:07:04;6.47;;;3.50;;
63536;SDS011;49686;51.880;5.632;2024-02-21T14:09:31;7.78;;;3.83;;
63536;SDS011;49686;51.880;5.632;2024-02-21T14:11:58;8.82;;;3.67;;
63536;SDS011;49686;51.880;5.632;2024-02-21T14:14:25;5.28;;;2.83;;
63536;SDS011;49686;51.880;5.632;2024-02-21T14:16:52;6.07;;;3.70;;
63536;SDS011;49686;51.880;5.632;2024-02-21T14:19:19;11.50;;;3.15;;
63536;SDS011;49686;51.880;5.632;2024-02-21T14:21:47;9.77;;;3.90;;
63536;SDS011;49686;51.880;5.632;2024-02-21T14:24:14;5.53;;;3.03;;
63536;SDS011;49686;51.880;5.632;2024-02-21T14:26:41;7.85;;;3.47;;
63536;SDS011;49686;51.880;5.632;2024-02-21T14:29:08;8.25;;;3.17;;
63536;SDS011;49686;51.880;5.632;2024-02-21T14:31:35;8.95;;;3.50;;
63536;SDS011;49686;51.880;5.632;2024-02-21T14:34:02;8.40;;;4.10;;
63536;SDS011;49686;51.880;5.632;2024-02-21T14:36:29;8.63;;;3.15;;
63536;SDS011;49686;51.880;5.632;2024-02-21T14:38:58;7.35;;;3.15;;
63536;SDS011;49686;51.880;5.632;2024-02-21T14:41:25;6.90;;;3.08;;
63536;SDS011;49686;51.880;5.632;2024-02-21T14:43:52;8.85;;;4.00;;
63536;SDS011;49686;51.880;5.632;2024-02-21T14:46:19;8.15;;;3.80;;